Terminal Aerodrome Forecast
Issued by NWS Sioux Falls, SD

Home | Current Version | Previous Version | Text Only | Print | Product List | Glossary On
Versions: 1 2 3 4 5 6 7 8 9 10 11 12 13
000
FTUS43 KFSD 162325
TAFFSD
TAF
KFSD 162325Z 1700/1724 02007KT P6SM BKN035
     FM170800 03007KT P6SM SCT010 BKN020
     FM171800 36005KT P6SM SCT100=

USA.gov is the U.S. government's official web portal to all federal, state and local government web resources and services.